Time;durP1;ratioP1;P1;durP2;ratioP2;P2;SDS_P1;SDS_P2;PMS_P1;PMS_P2;Temp;Humidity;BMP_temperature;BMP_pressure;BME280_temperature;BME280_humidity;BME280_pressure;Samples;Min_cycle;Max_cycle;Signal;HPM_P1;HPM_P2
2021/01/24 00:00:00;;;;;;;27.23;14.27;;;3.20;99.80;;;;;;5027433;28;20805;-82
2021/01/24 00:02:27;;;;;;;27.83;15.70;;;3.20;99.80;;;;;;5030119;28;20226;-81
2021/01/24 00:04:55;;;;;;;29.70;15.13;;;3.20;99.80;;;;;;5028337;28;20239;-81
2021/01/24 00:07:22;;;;;;;25.70;14.70;;;3.20;99.80;;;;;;5027875;28;20291;-81
2021/01/24 00:09:49;;;;;;;26.38;14.98;;;3.30;99.80;;;;;;5026009;28;20230;-81
2021/01/24 00:12:16;;;;;;;28.73;15.40;;;3.30;99.80;;;;;;4995381;28;20249;-82
2021/01/24 00:14:43;;;;;;;28.05;14.65;;;3.30;99.80;;;;;;5012278;28;20225;-84
2021/01/24 00:17:10;;;;;;;23.95;13.88;;;3.30;99.80;;;;;;5035419;28;20539;-82
2021/01/24 00:19:37;;;;;;;31.35;17.17;;;3.30;99.80;;;;;;5024496;28;20234;-81
2021/01/24 00:22:05;;;;;;;28.25;15.80;;;3.30;99.80;;;;;;5010203;28;20240;-82
2021/01/24 00:24:34;;;;;;;29.33;15.82;;;3.30;99.80;;;;;;5003457;28;20343;-84
2021/01/24 00:27:01;;;;;;;27.70;15.73;;;3.30;99.80;;;;;;5010617;28;20230;-81
2021/01/24 00:29:27;;;;;;;26.90;15.30;;;3.30;99.80;;;;;;5007787;28;20253;-82
2021/01/24 00:31:55;;;;;;;29.33;14.10;;;3.30;99.80;;;;;;5027393;28;20231;-82
2021/01/24 00:34:22;;;;;;;28.40;15.63;;;3.30;99.80;;;;;;5015861;28;20233;-81
2021/01/24 00:36:49;;;;;;;24.75;14.18;;;3.40;99.80;;;;;;5012937;28;20254;-82
2021/01/24 00:39:17;;;;;;;28.52;14.02;;;3.40;99.80;;;;;;5016901;28;20221;-82
2021/01/24 00:41:44;;;;;;;26.23;14.95;;;3.40;99.80;;;;;;5010687;28;20726;-82
2021/01/24 00:44:11;;;;;;;26.35;16.33;;;3.40;99.80;;;;;;5006933;28;20245;-83
2021/01/24 00:46:38;;;;;;;30.13;14.88;;;3.50;99.80;;;;;;5036582;28;20880;-81
2021/01/24 00:49:05;;;;;;;22.65;13.20;;;3.40;99.80;;;;;;5029137;28;20233;-81
2021/01/24 00:51:32;;;;;;;24.90;14.20;;;3.40;99.80;;;;;;5026075;28;20236;-82
2021/01/24 00:53:59;;;;;;;21.35;12.93;;;3.40;99.80;;;;;;5011966;28;20755;-81
2021/01/24 00:56:27;;;;;;;19.40;12.43;;;3.40;99.80;;;;;;5006205;28;20250;-83
2021/01/24 00:58:54;;;;;;;21.52;12.07;;;3.40;99.80;;;;;;4988185;28;20271;-84
2021/01/24 01:01:21;;;;;;;23.00;12.27;;;3.40;99.80;;;;;;5016744;28;20234;-81
2021/01/24 01:03:48;;;;;;;20.60;12.48;;;3.40;99.80;;;;;;5007070;28;20227;-83
2021/01/24 01:06:15;;;;;;;19.83;12.15;;;3.40;99.80;;;;;;5008416;28;20301;-85
2021/01/24 01:08:42;;;;;;;20.02;12.48;;;3.40;99.80;;;;;;5008747;28;20239;-82
2021/01/24 01:11:10;;;;;;;14.20;9.93;;;3.50;99.80;;;;;;5008292;28;20299;-82
2021/01/24 01:13:38;;;;;;;20.73;11.00;;;3.50;99.80;;;;;;4998549;28;20231;-82
2021/01/24 01:16:05;;;;;;;17.90;10.23;;;3.50;99.80;;;;;;5026633;28;20229;-81
2021/01/24 01:18:32;;;;;;;18.95;11.07;;;3.50;99.80;;;;;;5031740;28;20238;-83
2021/01/24 01:20:59;;;;;;;17.85;11.43;;;3.40;99.80;;;;;;5034789;28;20235;-82
2021/01/24 01:23:26;;;;;;;18.38;10.38;;;3.40;99.80;;;;;;5046789;28;20835;-80
2021/01/24 01:25:55;;;;;;;15.77;10.00;;;3.40;99.80;;;;;;5024192;28;20235;-81
2021/01/24 01:28:23;;;;;;;16.30;10.13;;;3.30;99.80;;;;;;5002174;28;20312;-83
2021/01/24 01:30:52;;;;;;;19.63;11.27;;;3.30;99.80;;;;;;5014723;28;20249;-80
2021/01/24 01:33:19;;;;;;;15.27;9.23;;;3.30;99.80;;;;;;5034098;28;20316;-81
2021/01/24 01:35:46;;;;;;;15.98;9.73;;;3.30;99.80;;;;;;5014501;28;20822;-82
2021/01/24 01:38:13;;;;;;;15.70;8.52;;;3.30;99.80;;;;;;4999497;28;20217;-83
2021/01/24 01:40:40;;;;;;;13.25;8.82;;;3.30;99.80;;;;;;5017039;28;20232;-83
2021/01/24 01:43:07;;;;;;;10.20;7.70;;;3.20;99.80;;;;;;5007444;28;20234;-83
2021/01/24 01:45:34;;;;;;;12.48;7.10;;;3.20;99.80;;;;;;5013238;28;20333;-82
2021/01/24 01:48:06;;;;;;;10.18;7.13;;;3.20;99.80;;;;;;5028678;28;20221;-82
2021/01/24 01:50:34;;;;;;;12.90;8.52;;;3.20;99.80;;;;;;5028405;28;20238;-82
2021/01/24 01:53:02;;;;;;;10.95;7.38;;;3.20;99.80;;;;;;5034226;28;20727;-84
2021/01/24 01:55:29;;;;;;;11.27;7.40;;;3.10;99.80;;;;;;5038589;28;20237;-83
2021/01/24 01:57:57;;;;;;;10.30;7.50;;;3.10;99.80;;;;;;5019003;28;20233;-81
2021/01/24 02:00:25;;;;;;;10.70;7.15;;;3.10;99.80;;;;;;5023392;28;20231;-82
2021/01/24 02:03:04;;;;;;;7.97;6.28;;;3.10;99.80;;;;;;5040560;28;20305;-81
2021/01/24 02:05:40;;;;;;;11.15;6.88;;;3.00;99.80;;;;;;5017062;28;20283;-83
2021/01/24 02:08:11;;;;;;;10.30;7.00;;;3.00;99.80;;;;;;4989932;28;20259;-83
2021/01/24 02:10:45;;;;;;;8.02;6.20;;;3.00;99.80;;;;;;4997479;28;20256;-84
2021/01/24 02:13:22;;;;;;;8.65;6.05;;;3.00;99.80;;;;;;4995654;28;20233;-83
2021/01/24 02:15:50;;;;;;;12.05;6.90;;;2.90;99.80;;;;;;5008807;28;20604;-83
2021/01/24 02:18:20;;;;;;;8.30;6.32;;;2.90;99.80;;;;;;5030867;28;20226;-83
2021/01/24 02:21:03;;;;;;;5.50;4.40;;;2.80;99.80;;;;;;5030244;28;20243;-82
2021/01/24 02:23:32;;;;;;;1.60;1.50;;;2.70;99.80;;;;;;5033140;28;20731;-83
2021/01/24 02:26:07;;;;;;;1.65;1.55;;;2.80;99.80;;;;;;5028234;28;20238;-83
2021/01/24 02:28:49;;;;;;;1.10;1.00;;;2.80;99.80;;;;;;5008636;28;20224;-81
2021/01/24 02:31:18;;;;;;;1.20;1.10;;;2.80;99.80;;;;;;5028088;28;20228;-83
2021/01/24 02:33:48;;;;;;;0.93;0.93;;;2.70;99.80;;;;;;5033974;28;20221;-81
2021/01/24 02:36:18;;;;;;;1.30;1.20;;;2.70;99.80;;;;;;5028280;28;20229;-81
2021/01/24 02:38:46;;;;;;;1.20;1.10;;;2.60;99.80;;;;;;5009653;28;20320;-79
2021/01/24 02:41:14;;;;;;;1.33;1.23;;;2.60;99.80;;;;;;5008714;28;20224;-80
2021/01/24 02:43:44;;;;;;;1.20;1.10;;;2.40;99.80;;;;;;4992425;28;20236;-82
2021/01/24 02:46:13;;;;;;;1.40;1.30;;;2.30;99.80;;;;;;5014409;28;20926;-81
2021/01/24 02:48:43;;;;;;;1.35;1.25;;;2.20;99.80;;;;;;5027494;28;20236;-81
2021/01/24 02:51:12;;;;;;;1.75;1.25;;;2.10;99.80;;;;;;5012604;28;20297;-80
2021/01/24 02:53:39;;;;;;;1.40;1.30;;;2.10;99.80;;;;;;5016766;28;20794;-83
2021/01/24 02:56:08;;;;;;;1.65;1.30;;;2.00;99.80;;;;;;5003009;28;20228;-84
2021/01/24 02:58:35;;;;;;;1.58;1.48;;;1.80;99.80;;;;;;5008035;28;20222;-82
2021/01/24 03:01:02;;;;;;;1.40;1.30;;;1.80;99.80;;;;;;5045864;28;20226;-81
2021/01/24 03:03:30;;;;;;;1.20;1.10;;;1.70;99.80;;;;;;5037903;28;20600;-83
2021/01/24 03:05:58;;;;;;;1.77;1.67;;;1.70;99.80;;;;;;5034769;28;20861;-83
2021/01/24 03:08:25;;;;;;;1.58;1.48;;;1.70;99.80;;;;;;5034524;28;20209;-84
2021/01/24 03:10:53;;;;;;;1.52;1.42;;;1.70;99.80;;;;;;5035518;28;20316;-82
2021/01/24 03:13:23;;;;;;;1.60;1.50;;;1.70;99.80;;;;;;5011070;28;20602;-81
2021/01/24 03:15:54;;;;;;;1.70;1.60;;;1.70;99.80;;;;;;5045209;28;20224;-81
2021/01/24 03:18:28;;;;;;;2.00;1.80;;;1.80;99.80;;;;;;5008751;28;20248;-83
2021/01/24 03:20:56;;;;;;;1.95;1.70;;;1.80;99.80;;;;;;5010550;28;20693;-82
2021/01/24 03:23:25;;;;;;;1.92;1.83;;;1.80;99.80;;;;;;5004608;28;20337;-82
2021/01/24 03:25:56;;;;;;;2.10;1.90;;;1.80;99.80;;;;;;5017178;28;20240;-81
2021/01/24 03:28:24;;;;;;;1.70;1.60;;;1.80;99.80;;;;;;4997860;28;20640;-81
2021/01/24 03:30:51;;;;;;;2.17;1.98;;;1.70;99.80;;;;;;5027845;28;20240;-82
2021/01/24 03:33:21;;;;;;;1.73;1.63;;;1.70;99.80;;;;;;5027024;28;20225;-82
2021/01/24 03:35:50;;;;;;;2.05;1.95;;;1.70;99.80;;;;;;5027624;28;20265;-82
2021/01/24 03:38:16;;;;;;;2.22;2.03;;;1.70;99.80;;;;;;5027885;28;20232;-82
2021/01/24 03:40:45;;;;;;;3.53;2.50;;;1.70;99.80;;;;;;5031373;28;20245;-81
2021/01/24 03:43:11;;;;;;;2.03;1.90;;;1.70;99.80;;;;;;5030958;28;20299;-83
2021/01/24 03:45:39;;;;;;;3.15;2.17;;;1.70;99.80;;;;;;5025473;28;20224;-81
2021/01/24 03:48:06;;;;;;;2.20;2.00;;;1.60;99.80;;;;;;5026586;28;20233;-82
2021/01/24 03:50:33;;;;;;;3.03;2.75;;;1.60;99.80;;;;;;5012123;28;20229;-82
2021/01/24 03:53:00;;;;;;;3.13;2.85;;;1.60;99.80;;;;;;5003684;28;20231;-82
2021/01/24 03:55:27;;;;;;;3.45;2.60;;;1.60;99.80;;;;;;5014049;28;20262;-81
2021/01/24 03:57:55;;;;;;;3.20;2.70;;;1.60;99.80;;;;;;5005548;28;20321;-82
2021/01/24 04:00:22;;;;;;;3.50;3.20;;;1.60;99.80;;;;;;5022651;28;20225;-82
2021/01/24 04:02:49;;;;;;;2.95;2.55;;;1.70;99.80;;;;;;5030740;28;20265;-81
2021/01/24 04:05:16;;;;;;;2.85;2.28;;;1.60;99.80;;;;;;5025226;28;20223;-82
2021/01/24 04:07:43;;;;;;;2.05;1.95;;;1.60;99.80;;;;;;5033860;28;20225;-82
2021/01/24 04:10:12;;;;;;;2.20;1.90;;;1.70;99.80;;;;;;5021547;28;20715;-82
2021/01/24 04:12:39;;;;;;;1.30;1.20;;;1.70;99.80;;;;;;5011229;28;20839;-82
2021/01/24 04:15:08;;;;;;;1.40;1.08;;;1.80;99.80;;;;;;5019694;28;20229;-81
2021/01/24 04:17:36;;;;;;;3.42;1.10;;;1.80;99.80;;;;;;5030171;28;20226;-83
2021/01/24 04:20:05;;;;;;;1.00;0.90;;;1.80;99.80;;;;;;4996430;28;20236;-82
2021/01/24 04:22:32;;;;;;;1.20;1.10;;;1.80;99.80;;;;;;4985855;28;20653;-82
2021/01/24 04:25:01;;;;;;;1.00;0.90;;;1.80;99.80;;;;;;5008194;28;20307;-84
2021/01/24 04:27:28;;;;;;;1.30;1.20;;;1.80;99.80;;;;;;4999260;28;20296;-81
2021/01/24 04:29:55;;;;;;;2.05;1.85;;;1.80;99.80;;;;;;5020297;28;20330;-84
2021/01/24 04:32:23;;;;;;;1.98;1.60;;;1.80;99.80;;;;;;5044335;28;20233;-83
2021/01/24 04:34:50;;;;;;;3.58;2.17;;;1.80;99.80;;;;;;5030697;28;20229;-84
2021/01/24 04:37:17;;;;;;;2.10;1.80;;;1.80;99.80;;;;;;5028501;28;20287;-84
2021/01/24 04:39:44;;;;;;;2.10;1.58;;;1.80;99.80;;;;;;5032748;28;20229;-82
2021/01/24 04:42:14;;;;;;;2.75;1.90;;;1.80;99.80;;;;;;5013610;28;20229;-82
2021/01/24 04:44:48;;;;;;;2.67;1.67;;;1.80;99.80;;;;;;5001930;28;20225;-82
2021/01/24 04:47:16;;;;;;;1.52;1.42;;;1.80;99.80;;;;;;5047653;28;20231;-83
2021/01/24 04:49:44;;;;;;;2.50;2.30;;;1.70;99.80;;;;;;5054949;28;20260;-84
2021/01/24 04:52:12;;;;;;;2.08;1.88;;;1.80;99.80;;;;;;5027214;28;20233;-82
2021/01/24 04:54:42;;;;;;;2.03;1.85;;;1.80;99.80;;;;;;5005512;28;20235;-82
2021/01/24 04:57:10;;;;;;;2.47;2.22;;;1.80;99.80;;;;;;5015324;28;20224;-81
2021/01/24 04:59:37;;;;;;;1.80;1.63;;;1.80;99.80;;;;;;5018051;28;20333;-82
2021/01/24 05:02:06;;;;;;;1.90;1.70;;;1.80;99.80;;;;;;5001186;28;20230;-82
2021/01/24 05:04:33;;;;;;;2.38;1.25;;;1.80;99.80;;;;;;5007761;28;20225;-81
2021/01/24 05:07:01;;;;;;;1.60;1.20;;;1.80;99.80;;;;;;5018887;28;20761;-82
2021/01/24 05:09:28;;;;;;;1.20;1.10;;;1.80;99.80;;;;;;5022121;28;20221;-82
2021/01/24 05:11:55;;;;;;;1.20;1.10;;;1.80;99.80;;;;;;5010819;28;20238;-81
2021/01/24 05:14:25;;;;;;;1.70;1.42;;;1.70;99.80;;;;;;5003161;28;20289;-83
2021/01/24 05:16:53;;;;;;;1.38;1.00;;;1.70;99.80;;;;;;5008880;28;20241;-83
2021/01/24 05:19:21;;;;;;;2.22;0.98;;;1.70;99.80;;;;;;5023689;28;20224;-84
2021/01/24 05:21:48;;;;;;;1.35;1.10;;;1.70;99.80;;;;;;5025004;28;20230;-80
2021/01/24 05:24:18;;;;;;;1.20;1.10;;;1.70;99.80;;;;;;5021819;28;20300;-83
2021/01/24 05:26:46;;;;;;;2.00;1.50;;;1.70;99.80;;;;;;5017416;28;20298;-83
2021/01/24 05:29:20;;;;;;;1.50;1.40;;;1.70;99.80;;;;;;4998652;28;20221;-82
2021/01/24 05:31:48;;;;;;;1.98;1.30;;;1.70;99.80;;;;;;5022414;28;20243;-80
2021/01/24 05:34:16;;;;;;;1.85;1.50;;;1.70;99.80;;;;;;5024308;28;20633;-82
2021/01/24 05:36:44;;;;;;;1.60;1.50;;;1.70;99.80;;;;;;4993822;28;20574;-82
2021/01/24 05:39:11;;;;;;;2.42;1.75;;;1.60;99.80;;;;;;5005123;28;20893;-82
2021/01/24 05:41:39;;;;;;;2.95;2.25;;;1.70;99.80;;;;;;5016531;28;20253;-80
2021/01/24 05:44:13;;;;;;;1.60;1.48;;;1.70;99.80;;;;;;5006008;28;20721;-81
2021/01/24 05:46:40;;;;;;;2.08;1.83;;;1.60;99.80;;;;;;5024140;28;20222;-82
2021/01/24 05:49:09;;;;;;;1.80;1.70;;;1.60;99.80;;;;;;5032863;28;20233;-82
2021/01/24 05:51:36;;;;;;;2.00;1.90;;;1.70;99.80;;;;;;5043851;28;20252;-82
2021/01/24 05:54:03;;;;;;;2.50;2.30;;;1.60;99.80;;;;;;5028031;28;20240;-81
2021/01/24 05:56:31;;;;;;;3.72;2.13;;;1.60;99.80;;;;;;5005325;28;20321;-81
2021/01/24 05:59:00;;;;;;;3.38;2.70;;;1.60;99.80;;;;;;5019411;28;20649;-82
2021/01/24 06:01:27;;;;;;;3.55;2.85;;;1.60;99.80;;;;;;5017561;28;20220;-82
2021/01/24 06:03:57;;;;;;;4.90;2.80;;;1.60;99.80;;;;;;5025282;28;20243;-82
2021/01/24 06:06:24;;;;;;;3.58;2.85;;;1.60;99.80;;;;;;5017116;28;20228;-82
2021/01/24 06:08:51;;;;;;;5.10;3.30;;;1.50;99.80;;;;;;5018087;28;20220;-83
2021/01/24 06:11:19;;;;;;;3.17;2.88;;;1.50;99.80;;;;;;5011726;28;20308;-82
2021/01/24 06:13:48;;;;;;;4.95;3.35;;;1.50;99.80;;;;;;5012450;28;20228;-83
2021/01/24 06:16:21;;;;;;;3.58;2.80;;;1.50;99.80;;;;;;5027065;28;20226;-83
2021/01/24 06:18:55;;;;;;;4.18;3.15;;;1.50;99.80;;;;;;5030081;28;20235;-83
2021/01/24 06:21:28;;;;;;;3.65;3.35;;;1.50;99.80;;;;;;5034819;28;20226;-82
2021/01/24 06:24:00;;;;;;;5.20;3.78;;;1.50;99.80;;;;;;5026896;28;20240;-82
2021/01/24 06:26:29;;;;;;;5.50;4.28;;;1.50;99.80;;;;;;5014341;28;20223;-82
2021/01/24 06:29:05;;;;;;;4.28;3.88;;;1.50;99.80;;;;;;5009925;28;20657;-84
2021/01/24 06:31:33;;;;;;;5.00;4.10;;;1.40;99.80;;;;;;5032780;28;20349;-81
2021/01/24 06:34:05;;;;;;;5.28;4.13;;;1.40;99.80;;;;;;5026120;28;20747;-83
2021/01/24 06:36:37;;;;;;;6.07;4.47;;;1.40;99.80;;;;;;5030900;28;20225;-83
2021/01/24 06:39:05;;;;;;;6.40;4.53;;;1.50;99.80;;;;;;5011403;28;20246;-82
2021/01/24 06:41:43;;;;;;;6.63;3.88;;;1.50;99.80;;;;;;5013443;28;20276;-82
2021/01/24 06:44:39;;;;;;;5.93;5.07;;;1.50;99.80;;;;;;5015079;28;20295;-82
2021/01/24 06:47:08;;;;;;;6.97;5.20;;;1.40;99.80;;;;;;5014076;28;20243;-82
2021/01/24 06:49:40;;;;;;;8.90;5.00;;;1.40;99.80;;;;;;5005870;28;20222;-82
2021/01/24 06:52:18;;;;;;;7.18;5.05;;;1.40;99.80;;;;;;5003698;28;20329;-82
2021/01/24 06:54:48;;;;;;;8.93;4.80;;;1.50;99.80;;;;;;5000773;28;20217;-83
2021/01/24 06:57:15;;;;;;;6.90;5.40;;;1.40;99.80;;;;;;5018378;28;20220;-82
2021/01/24 06:59:42;;;;;;;8.02;5.28;;;1.40;99.80;;;;;;5003501;28;20752;-82
2021/01/24 07:02:26;;;;;;;12.07;6.25;;;1.50;99.80;;;;;;5025342;28;20230;-82
2021/01/24 07:05:17;;;;;;;6.97;4.43;;;1.50;99.80;;;;;;5027059;28;20236;-82
2021/01/24 07:07:45;;;;;;;10.52;5.40;;;1.40;99.80;;;;;;4993751;28;20234;-83
2021/01/24 07:10:43;;;;;;;9.88;6.03;;;1.50;99.80;;;;;;4976762;28;20226;-82
2021/01/24 07:13:32;;;;;;;9.07;5.40;;;1.50;99.80;;;;;;4983434;28;20236;-82
2021/01/24 07:16:02;;;;;;;8.25;5.40;;;1.50;99.80;;;;;;5004816;28;20230;-84
2021/01/24 07:18:41;;;;;;;12.10;5.55;;;1.50;99.80;;;;;;5030703;28;20677;-83
2021/01/24 07:21:08;;;;;;;7.97;5.45;;;1.50;99.80;;;;;;4997758;28;20828;-84
2021/01/24 07:23:38;;;;;;;7.25;4.72;;;1.50;99.80;;;;;;5008288;28;20236;-83
2021/01/24 07:26:05;;;;;;;7.20;4.75;;;1.60;99.80;;;;;;5007691;28;20328;-83
2021/01/24 07:28:34;;;;;;;9.00;5.55;;;1.60;99.80;;;;;;4998788;28;20240;-82
2021/01/24 07:31:02;;;;;;;12.68;7.07;;;1.50;99.80;;;;;;4992853;28;20232;-81
2021/01/24 07:33:30;;;;;;;8.23;5.38;;;1.50;99.80;;;;;;5021487;28;20264;-83
2021/01/24 07:36:00;;;;;;;8.63;5.63;;;1.50;99.80;;;;;;5028841;28;20938;-82
2021/01/24 07:38:28;;;;;;;9.63;4.95;;;1.50;99.80;;;;;;5021177;28;20227;-84
2021/01/24 07:40:57;;;;;;;9.23;5.82;;;1.50;99.80;;;;;;5015681;28;20292;-82
2021/01/24 07:43:25;;;;;;;9.43;5.20;;;1.50;99.80;;;;;;5003663;28;20927;-82
2021/01/24 07:45:52;;;;;;;7.88;5.28;;;1.50;99.80;;;;;;5016157;28;20230;-81
2021/01/24 07:48:19;;;;;;;10.05;5.68;;;1.50;99.80;;;;;;5017288;28;20286;-82
2021/01/24 07:50:46;;;;;;;7.32;5.22;;;1.40;99.80;;;;;;5009785;28;20229;-82
2021/01/24 07:53:15;;;;;;;10.48;5.70;;;1.40;99.80;;;;;;4998714;28;20226;-82
2021/01/24 07:55:43;;;;;;;10.18;5.40;;;1.50;99.80;;;;;;4997078;28;20237;-83
2021/01/24 07:58:11;;;;;;;9.43;5.35;;;1.40;99.80;;;;;;5011929;28;20231;-80
2021/01/24 08:00:40;;;;;;;11.15;5.90;;;1.40;99.80;;;;;;5012809;28;20328;-82
2021/01/24 08:03:07;;;;;;;11.27;6.30;;;1.40;99.80;;;;;;5024463;28;20229;-82
2021/01/24 08:05:37;;;;;;;12.77;6.72;;;1.40;99.80;;;;;;5023555;28;20671;-83
2021/01/24 08:08:05;;;;;;;13.52;7.07;;;1.40;99.80;;;;;;5028524;28;20229;-83
2021/01/24 08:10:33;;;;;;;7.28;5.25;;;1.30;99.80;;;;;;5026864;28;20236;-82
2021/01/24 08:13:00;;;;;;;9.93;5.60;;;1.40;99.80;;;;;;5016692;28;20244;-82
2021/01/24 08:15:28;;;;;;;10.90;4.72;;;1.30;99.80;;;;;;5020188;28;20312;-83
2021/01/24 08:17:57;;;;;;;11.30;6.20;;;1.30;99.80;;;;;;5028069;28;20320;-82
2021/01/24 08:20:26;;;;;;;9.75;5.88;;;1.30;99.80;;;;;;5016493;28;20237;-82
2021/01/24 08:22:53;;;;;;;11.13;5.80;;;1.30;99.80;;;;;;5024346;28;20240;-82
2021/01/24 08:25:20;;;;;;;8.43;4.90;;;1.30;99.80;;;;;;5010484;28;20246;-83
2021/01/24 08:27:50;;;;;;;8.30;5.38;;;1.30;99.80;;;;;;5007483;28;20222;-83
2021/01/24 08:30:20;;;;;;;10.75;6.50;;;1.30;99.80;;;;;;5029121;28;20740;-82
2021/01/24 08:32:48;;;;;;;10.88;5.97;;;1.30;99.80;;;;;;5019144;28;20242;-83
2021/01/24 08:35:15;;;;;;;10.50;5.35;;;1.30;99.80;;;;;;5009755;28;20229;-83
2021/01/24 08:37:42;;;;;;;9.38;5.38;;;1.20;99.80;;;;;;5002356;28;20719;-83
2021/01/24 08:40:10;;;;;;;7.38;4.93;;;1.30;99.80;;;;;;5012279;28;20319;-82
2021/01/24 08:42:44;;;;;;;8.20;5.03;;;1.30;99.80;;;;;;5011637;28;20312;-83
2021/01/24 08:45:18;;;;;;;7.07;4.90;;;1.20;99.80;;;;;;5019233;28;20621;-82
2021/01/24 08:47:51;;;;;;;5.95;3.90;;;1.30;99.80;;;;;;5026312;28;20272;-83
2021/01/24 08:50:18;;;;;;;5.72;3.60;;;1.30;99.80;;;;;;5027196;28;20245;-83
2021/01/24 08:52:52;;;;;;;4.68;3.40;;;1.30;99.80;;;;;;5022449;28;20249;-82
2021/01/24 08:55:19;;;;;;;8.82;3.75;;;1.30;99.80;;;;;;5010348;28;20282;-82
2021/01/24 08:57:46;;;;;;;3.08;2.58;;;1.30;99.80;;;;;;5004928;28;20221;-84
2021/01/24 09:00:16;;;;;;;2.20;2.00;;;1.30;99.80;;;;;;5006015;28;20933;-82
2021/01/24 09:02:46;;;;;;;2.10;1.80;;;1.30;99.80;;;;;;5028035;28;20280;-84
2021/01/24 09:05:15;;;;;;;2.03;1.85;;;1.30;99.80;;;;;;5007610;28;20302;-83
2021/01/24 09:07:43;;;;;;;3.80;2.10;;;1.30;99.80;;;;;;4996657;28;20257;-82
2021/01/24 09:10:21;;;;;;;2.80;1.80;;;1.30;99.80;;;;;;5015949;28;20238;-83
2021/01/24 09:12:50;;;;;;;1.83;1.65;;;1.30;99.80;;;;;;5019367;28;20229;-82
2021/01/24 09:15:19;;;;;;;1.98;1.10;;;1.30;99.80;;;;;;5024058;28;20243;-82
2021/01/24 09:17:47;;;;;;;1.67;1.58;;;1.30;99.80;;;;;;5030217;28;20224;-82
2021/01/24 09:20:15;;;;;;;1.30;1.20;;;1.30;99.80;;;;;;5032037;28;20255;-83
2021/01/24 09:22:43;;;;;;;1.10;1.00;;;1.30;99.80;;;;;;5027892;28;20226;-82
2021/01/24 09:25:11;;;;;;;1.20;1.10;;;1.30;99.80;;;;;;5008385;28;20308;-83
2021/01/24 09:27:39;;;;;;;2.05;1.80;;;1.30;99.80;;;;;;4995861;28;20231;-83
2021/01/24 09:30:08;;;;;;;1.75;1.65;;;1.30;99.80;;;;;;5022452;28;20319;-83
2021/01/24 09:32:37;;;;;;;3.90;2.72;;;1.30;99.80;;;;;;5029112;28;20780;-83
2021/01/24 09:35:05;;;;;;;2.85;2.45;;;1.30;99.80;;;;;;5007559;28;20229;-83
2021/01/24 09:37:32;;;;;;;2.20;2.00;;;1.30;99.80;;;;;;5017499;28;20235;-83
2021/01/24 09:40:00;;;;;;;2.13;1.65;;;1.30;99.80;;;;;;5026912;28;20233;-83
2021/01/24 09:42:27;;;;;;;1.92;1.55;;;1.30;99.80;;;;;;4993825;28;20286;-82
2021/01/24 09:44:54;;;;;;;1.70;1.60;;;1.30;99.80;;;;;;5007094;28;20308;-82
2021/01/24 09:47:21;;;;;;;2.25;1.70;;;1.30;99.80;;;;;;5040884;28;20559;-84
2021/01/24 09:49:49;;;;;;;3.60;2.25;;;1.30;99.80;;;;;;5031512;28;20237;-84
2021/01/24 09:52:16;;;;;;;1.70;1.60;;;1.30;99.80;;;;;;5029814;28;20237;-83
2021/01/24 09:54:45;;;;;;;1.85;1.75;;;1.30;99.80;;;;;;5026287;28;20261;-83
2021/01/24 09:57:15;;;;;;;3.33;2.63;;;1.40;99.80;;;;;;5015266;28;20601;-83
2021/01/24 09:59:42;;;;;;;2.30;2.10;;;1.40;99.80;;;;;;5014875;28;20264;-84
2021/01/24 10:02:09;;;;;;;2.70;2.50;;;1.40;99.80;;;;;;5044142;28;20229;-83
2021/01/24 10:04:36;;;;;;;1.70;1.60;;;1.40;99.80;;;;;;5025454;28;20277;-83
2021/01/24 10:07:04;;;;;;;1.70;1.60;;;1.40;99.80;;;;;;4995883;28;20317;-83
2021/01/24 10:09:32;;;;;;;1.50;1.40;;;1.40;99.80;;;;;;5014526;28;20252;-83
2021/01/24 10:12:02;;;;;;;2.00;1.80;;;1.50;99.80;;;;;;5008091;28;20249;-84
2021/01/24 10:14:31;;;;;;;12.35;9.07;;;1.50;99.80;;;;;;5007072;28;20229;-83
2021/01/24 10:16:58;;;;;;;7.22;4.53;;;1.50;99.80;;;;;;5040374;28;20256;-83
2021/01/24 10:19:27;;;;;;;7.88;4.75;;;1.50;99.80;;;;;;5037951;28;20233;-84
2021/01/24 10:21:54;;;;;;;8.27;4.25;;;1.60;99.80;;;;;;5031533;28;20241;-83
2021/01/24 10:24:23;;;;;;;7.47;4.07;;;1.60;99.80;;;;;;5032988;28;20228;-83
2021/01/24 10:26:50;;;;;;;12.20;6.40;;;1.70;99.80;;;;;;5012975;28;20853;-83
2021/01/24 10:29:19;;;;;;;4.20;3.80;;;1.70;99.80;;;;;;5015664;28;20319;-83
2021/01/24 10:31:46;;;;;;;5.05;3.55;;;1.80;99.80;;;;;;5020508;28;20222;-83
2021/01/24 10:34:13;;;;;;;9.60;4.90;;;1.80;99.80;;;;;;5031707;28;20226;-84
2021/01/24 10:36:40;;;;;;;4.68;3.88;;;1.80;99.80;;;;;;5023684;28;20261;-84
2021/01/24 10:39:07;;;;;;;4.25;3.67;;;1.90;99.80;;;;;;5007329;28;20232;-83
2021/01/24 10:41:35;;;;;;;5.43;3.03;;;1.90;99.80;;;;;;5017467;28;20248;-83
2021/01/24 10:44:05;;;;;;;3.40;3.10;;;1.90;99.80;;;;;;5027744;28;20295;-84
2021/01/24 10:46:33;;;;;;;19.15;5.40;;;1.90;99.80;;;;;;5023716;28;20221;-84
2021/01/24 10:49:02;;;;;;;3.97;3.25;;;2.00;99.80;;;;;;5019265;28;20238;-84
2021/01/24 10:51:29;;;;;;;5.93;3.05;;;2.00;99.80;;;;;;5018763;28;20251;-83
2021/01/24 10:53:57;;;;;;;7.63;4.30;;;2.00;99.80;;;;;;5015653;28;20240;-83
2021/01/24 10:56:24;;;;;;;12.48;5.80;;;2.00;99.80;;;;;;5013349;28;20229;-84
2021/01/24 10:58:52;;;;;;;3.53;3.05;;;2.00;99.80;;;;;;5008451;28;20239;-82
2021/01/24 11:01:19;;;;;;;8.40;4.65;;;2.00;99.80;;;;;;5030531;28;20241;-83
2021/01/24 11:03:46;;;;;;;5.60;3.72;;;2.10;99.80;;;;;;5029405;28;20525;-84
2021/01/24 11:06:17;;;;;;;5.80;3.80;;;2.10;99.80;;;;;;5030569;28;20289;-84
2021/01/24 11:08:44;;;;;;;4.47;3.53;;;2.20;99.80;;;;;;5019720;28;20236;-84
2021/01/24 11:11:11;;;;;;;3.35;2.63;;;2.20;99.80;;;;;;5023436;28;20244;-85
2021/01/24 11:13:38;;;;;;;10.05;6.00;;;2.20;99.80;;;;;;5008046;28;20230;-83
2021/01/24 11:16:06;;;;;;;3.75;3.38;;;2.20;99.80;;;;;;5026058;28;20232;-83
2021/01/24 11:18:33;;;;;;;3.28;2.85;;;2.20;99.80;;;;;;5030591;28;20217;-83
2021/01/24 11:21:05;;;;;;;5.28;4.28;;;2.30;99.80;;;;;;5009090;28;20788;-84
2021/01/24 11:23:32;;;;;;;35.97;12.80;;;2.40;99.80;;;;;;5019495;28;20254;-84
2021/01/24 11:26:02;;;;;;;3.20;2.90;;;2.50;99.80;;;;;;5000399;28;20614;-83
2021/01/24 11:28:29;;;;;;;2.60;2.33;;;2.50;99.80;;;;;;4999893;28;20261;-84
2021/01/24 11:30:56;;;;;;;2.67;2.38;;;2.60;99.80;;;;;;5030065;28;20241;-86
2021/01/24 11:33:24;;;;;;;3.05;2.70;;;2.70;99.80;;;;;;5033877;28;20324;-83
2021/01/24 11:35:51;;;;;;;3.35;2.45;;;2.70;99.80;;;;;;5030122;28;20246;-83
2021/01/24 11:38:18;;;;;;;4.05;2.95;;;2.80;99.80;;;;;;5037323;28;20236;-82
2021/01/24 11:40:45;;;;;;;3.13;2.10;;;2.90;99.80;;;;;;5018003;28;20297;-83
2021/01/24 11:43:12;;;;;;;4.90;3.38;;;2.90;99.80;;;;;;5012833;28;20225;-84
2021/01/24 11:45:39;;;;;;;3.03;2.53;;;3.00;99.80;;;;;;5021987;28;20452;-82
2021/01/24 11:48:07;;;;;;;2.58;2.38;;;3.00;99.80;;;;;;5029396;28;20240;-83
2021/01/24 11:50:36;;;;;;;3.83;2.55;;;3.10;99.80;;;;;;5015878;28;20258;-84
2021/01/24 11:53:03;;;;;;;2.65;2.45;;;3.20;99.80;;;;;;5011175;28;20229;-83
2021/01/24 11:55:30;;;;;;;3.92;2.70;;;3.20;99.80;;;;;;5016869;28;20253;-83
2021/01/24 11:57:57;;;;;;;3.25;2.95;;;3.30;99.80;;;;;;5011870;28;20301;-85
2021/01/24 12:00:27;;;;;;;2.20;2.00;;;3.40;99.80;;;;;;5023381;28;20237;-83
2021/01/24 12:02:54;;;;;;;3.28;2.63;;;3.40;99.80;;;;;;5029735;28;20768;-83
2021/01/24 12:05:23;;;;;;;2.00;1.80;;;3.50;99.80;;;;;;5032133;28;20230;-84
2021/01/24 12:07:51;;;;;;;3.78;3.03;;;3.40;99.80;;;;;;5024749;28;20248;-83
2021/01/24 12:10:18;;;;;;;2.70;2.50;;;3.40;99.80;;;;;;5025639;28;20255;-83
2021/01/24 12:12:45;;;;;;;3.00;2.75;;;3.40;99.80;;;;;;5008659;28;20237;-85
2021/01/24 12:15:13;;;;;;;3.30;2.88;;;3.40;99.80;;;;;;5014478;28;20229;-83
2021/01/24 12:17:40;;;;;;;4.47;2.80;;;3.30;99.80;;;;;;5035040;28;20237;-83
2021/01/24 12:20:08;;;;;;;5.60;3.28;;;3.30;99.80;;;;;;5029062;28;20226;-87
2021/01/24 12:22:35;;;;;;;7.80;3.17;;;3.30;99.80;;;;;;5006693;28;20320;-83
2021/01/24 12:25:03;;;;;;;5.47;3.70;;;3.30;99.80;;;;;;5002086;28;20232;-83
2021/01/24 12:27:31;;;;;;;4.55;3.53;;;3.30;99.80;;;;;;5022917;28;20221;-84
2021/01/24 12:29:58;;;;;;;6.50;4.35;;;3.30;99.80;;;;;;5005727;28;20317;-85
2021/01/24 12:32:25;;;;;;;5.07;3.47;;;3.30;99.80;;;;;;5028983;28;20236;-83
2021/01/24 12:34:52;;;;;;;4.18;3.42;;;3.30;99.80;;;;;;5013001;28;20804;-84
2021/01/24 12:37:19;;;;;;;6.13;3.20;;;3.30;99.80;;;;;;5020399;28;20733;-82
2021/01/24 12:39:46;;;;;;;6.22;4.05;;;3.30;99.80;;;;;;4999885;28;20287;-84
2021/01/24 12:42:16;;;;;;;4.28;3.88;;;3.30;99.80;;;;;;5032520;28;20972;-83
2021/01/24 12:44:44;;;;;;;4.38;3.47;;;3.30;99.80;;;;;;5006511;28;20230;-83
2021/01/24 12:47:11;;;;;;;5.03;3.58;;;3.40;99.80;;;;;;5033172;28;20322;-83
2021/01/24 12:49:39;;;;;;;4.65;3.38;;;3.40;99.80;;;;;;5025997;28;20236;-85
2021/01/24 12:52:06;;;;;;;4.60;3.42;;;3.40;99.80;;;;;;5024743;28;20287;-83
2021/01/24 12:54:33;;;;;;;4.32;3.50;;;3.50;99.80;;;;;;5007441;28;20639;-84
2021/01/24 12:57:00;;;;;;;3.45;2.83;;;3.50;99.80;;;;;;5002056;28;20312;-85
2021/01/24 12:59:28;;;;;;;4.82;3.40;;;3.60;99.80;;;;;;5001499;28;20236;-84